Arriola, Colorado
Current Conditions -  °F | °C
As of 7:53 AM on Thursday 18 Dec 2014 (Local Time) from KCEZ Reporting Station
Haze Haze  
Wind Chill: 32°   Ceiling: 4200
Heat Index: 32°   Visibility: 3mi
Dew Point: 32°   Wind: 0mph
Humidity: 100%   Direction: NA
Pressure: 30.13"   Gusts: NA
Location:  37.3484°N, 108.734°W
Report Text: KCEZ 181453Z AUTO 00000KT 3SM BR OVC042 00/00 A3013 RMK AO2 SLP201 T00000000 53009
Loading
Personal Weather Stations






























Interactive Weather Map New forecast layout! Learn more

10-Day Weather Forecast

Advertisements
Track Severe Weather on mobile